Time;durP1;ratioP1;P1;durP2;ratioP2;P2;SDS_P1;SDS_P2;PMS_P1;PMS_P2;Temp;Humidity;BMP_temperature;BMP_pressure;BME280_temperature;BME280_humidity;BME280_pressure;Samples;Min_cycle;Max_cycle;Signal;HPM_P1;HPM_P2
2021/07/11 00:00:12;;;;;;;0.15;0.00;;;18.10;72.20;;;;;;5027192;28;20040;-85
2021/07/11 00:02:38;;;;;;;0.00;0.00;;;18.10;72.30;;;;;;5027541;28;20034;-87
2021/07/11 00:05:06;;;;;;;0.10;0.00;;;18.00;72.30;;;;;;5012751;28;20038;-85
2021/07/11 00:07:32;;;;;;;0.10;0.08;;;18.00;72.30;;;;;;5012169;28;20045;-85
2021/07/11 00:09:58;;;;;;;10.60;0.10;;;18.00;72.30;;;;;;5012593;28;20056;-84
2021/07/11 00:12:25;;;;;;;0.22;0.00;;;18.00;72.40;;;;;;5027506;28;20034;-86
2021/07/11 00:14:51;;;;;;;0.43;0.13;;;18.00;72.40;;;;;;5012362;28;20480;-84
2021/07/11 00:17:18;;;;;;;0.10;0.00;;;17.90;72.40;;;;;;5026546;28;20485;-85
2021/07/11 00:19:44;;;;;;;0.00;0.00;;;17.90;72.40;;;;;;5012248;28;20041;-84
2021/07/11 00:22:10;;;;;;;0.10;0.00;;;17.90;72.40;;;;;;5012652;28;20045;-81
2021/07/11 00:24:39;;;;;;;0.00;0.00;;;17.80;72.50;;;;;;5012072;28;20034;-86
2021/07/11 00:27:06;;;;;;;0.43;0.10;;;17.80;72.50;;;;;;5011967;28;20058;-85
2021/07/11 00:29:33;;;;;;;0.00;0.00;;;17.80;72.60;;;;;;5011971;28;20050;-85
2021/07/11 00:31:59;;;;;;;0.30;0.17;;;17.80;72.70;;;;;;5011702;28;20401;-84
2021/07/11 00:34:25;;;;;;;0.10;0.00;;;17.70;72.60;;;;;;5012318;28;20030;-85
2021/07/11 00:36:51;;;;;;;0.10;0.00;;;17.80;72.70;;;;;;5011306;28;20034;-86
2021/07/11 00:39:17;;;;;;;0.63;0.47;;;17.70;72.70;;;;;;5011807;28;20481;-85
2021/07/11 00:41:43;;;;;;;0.00;0.00;;;17.70;72.70;;;;;;5008273;28;20213;-85
2021/07/11 00:44:09;;;;;;;0.35;0.10;;;17.70;72.70;;;;;;5007033;28;20387;-86
2021/07/11 00:46:36;;;;;;;0.55;0.20;;;17.70;72.70;;;;;;5033100;28;20030;-85
2021/07/11 00:49:03;;;;;;;0.00;0.00;;;17.70;72.70;;;;;;5017883;28;20392;-82
2021/07/11 00:51:30;;;;;;;0.08;0.03;;;17.70;72.70;;;;;;5033835;28;20033;-86
2021/07/11 00:53:56;;;;;;;1.95;0.22;;;17.70;72.70;;;;;;5033259;28;20037;-86
2021/07/11 00:56:22;;;;;;;7.20;0.20;;;17.80;72.70;;;;;;5033628;28;20026;-85
2021/07/11 00:58:48;;;;;;;0.20;0.08;;;17.80;72.70;;;;;;5018447;28;20570;-84
2021/07/11 01:01:38;;;;;;;0.08;0.00;;;17.80;72.70;;;;;;5033352;28;20030;-85
2021/07/11 01:04:18;;;;;;;0.98;0.28;;;17.80;72.70;;;;;;5019759;28;20053;-85
2021/07/11 01:06:46;;;;;;;0.75;0.22;;;17.80;72.70;;;;;;5016513;28;20045;-84
2021/07/11 01:09:15;;;;;;;0.10;0.00;;;17.80;72.70;;;;;;5032994;28;20026;-85
2021/07/11 01:11:51;;;;;;;0.20;0.03;;;17.80;72.70;;;;;;5013704;28;20034;-87
2021/07/11 01:14:17;;;;;;;0.55;0.05;;;17.80;72.70;;;;;;5022729;28;20415;-86
2021/07/11 01:16:46;;;;;;;0.00;0.00;;;17.80;72.70;;;;;;5033083;28;20038;-86
2021/07/11 01:19:52;;;;;;;0.43;0.17;;;17.80;72.70;;;;;;5033796;28;20022;-84
2021/07/11 01:22:19;;;;;;;0.00;0.00;;;17.80;72.70;;;;;;5002172;28;20030;-85
2021/07/11 01:25:05;;;;;;;0.08;0.08;;;17.80;72.70;;;;;;5017341;28;20361;-85
2021/07/11 01:27:31;;;;;;;0.52;0.10;;;17.80;72.70;;;;;;5017882;28;20045;-86
2021/07/11 01:29:58;;;;;;;0.10;0.03;;;17.80;72.70;;;;;;5013316;28;20401;-85
2021/07/11 01:32:24;;;;;;;0.00;0.00;;;17.80;72.80;;;;;;5008053;28;20034;-85
2021/07/11 01:34:51;;;;;;;0.10;0.00;;;17.80;72.80;;;;;;5033556;28;20033;-85
2021/07/11 01:37:17;;;;;;;1.05;0.00;;;17.80;72.80;;;;;;5033022;28;20042;-84
2021/07/11 01:39:44;;;;;;;0.95;0.20;;;17.80;72.80;;;;;;5017326;28;20050;-88
2021/07/11 01:42:11;;;;;;;0.10;0.00;;;17.80;72.80;;;;;;5033245;28;20530;-85
2021/07/11 01:44:37;;;;;;;0.25;0.00;;;17.80;72.80;;;;;;5033223;28;20030;-85
2021/07/11 01:47:04;;;;;;;0.08;0.00;;;17.80;72.70;;;;;;5032723;28;20049;-85
2021/07/11 01:49:33;;;;;;;0.20;0.03;;;17.90;72.80;;;;;;5016881;28;20050;-84
2021/07/11 01:52:00;;;;;;;0.55;0.28;;;17.90;72.90;;;;;;5016961;28;20038;-86
2021/07/11 01:54:28;;;;;;;0.10;0.00;;;17.90;72.80;;;;;;5029897;28;20030;-86
2021/07/11 01:56:54;;;;;;;0.10;0.00;;;17.90;72.80;;;;;;5014684;28;20037;-85
2021/07/11 01:59:20;;;;;;;1.00;0.30;;;17.90;72.80;;;;;;5014711;28;20034;-85
2021/07/11 02:01:46;;;;;;;0.15;0.00;;;17.90;72.90;;;;;;5027292;28;20473;-84
2021/07/11 02:04:12;;;;;;;0.38;0.00;;;17.90;72.80;;;;;;5025320;28;20029;-85
2021/07/11 02:06:38;;;;;;;0.52;0.17;;;17.90;72.90;;;;;;5005585;28;20026;-85
2021/07/11 02:09:07;;;;;;;0.10;0.00;;;17.90;72.90;;;;;;5008634;28;20050;-85
2021/07/11 02:11:35;;;;;;;0.00;0.00;;;17.90;72.90;;;;;;5019098;28;20045;-86
2021/07/11 02:14:04;;;;;;;0.00;0.00;;;17.90;72.90;;;;;;5005993;28;20724;-84
2021/07/11 02:16:33;;;;;;;0.00;0.00;;;17.90;72.90;;;;;;5009183;28;20042;-83
2021/07/11 02:19:00;;;;;;;0.00;0.00;;;17.90;73.00;;;;;;5008224;28;20597;-85
2021/07/11 02:21:26;;;;;;;0.00;0.00;;;17.90;73.00;;;;;;5004933;28;20155;-86
2021/07/11 02:23:53;;;;;;;0.38;0.10;;;17.90;72.90;;;;;;5023557;28;20022;-85
2021/07/11 02:26:20;;;;;;;0.20;0.00;;;17.90;73.00;;;;;;5005189;28;20042;-87
2021/07/11 02:28:47;;;;;;;0.00;0.00;;;17.90;73.00;;;;;;5024299;28;20075;-85
2021/07/11 02:31:13;;;;;;;0.43;0.00;;;17.90;73.00;;;;;;5007054;28;20045;-84
2021/07/11 02:33:41;;;;;;;0.57;0.08;;;17.90;73.00;;;;;;5006430;28;20519;-85
2021/07/11 02:36:12;;;;;;;0.15;0.10;;;17.90;73.10;;;;;;5004625;28;20022;-85
2021/07/11 02:38:43;;;;;;;0.43;0.22;;;17.80;73.10;;;;;;5029178;28;20018;-87
2021/07/11 02:41:10;;;;;;;0.25;0.08;;;17.90;73.20;;;;;;5012871;28;20053;-86
2021/07/11 02:43:37;;;;;;;0.00;0.00;;;17.90;73.20;;;;;;5029216;28;20033;-85
2021/07/11 02:46:03;;;;;;;0.00;0.00;;;17.80;73.10;;;;;;5012812;28;20030;-85
2021/07/11 02:48:29;;;;;;;3.83;0.20;;;17.80;73.30;;;;;;5009479;28;20413;-86
2021/07/11 02:50:55;;;;;;;0.68;0.25;;;17.80;73.30;;;;;;5006828;28;20033;-86
2021/07/11 02:53:22;;;;;;;0.20;0.00;;;17.80;73.40;;;;;;5028965;28;20484;-84
2021/07/11 02:55:48;;;;;;;2.03;0.63;;;17.70;73.30;;;;;;5028980;28;20389;-84
2021/07/11 02:58:16;;;;;;;0.05;0.00;;;17.70;73.40;;;;;;5029437;28;20033;-85
2021/07/11 03:00:42;;;;;;;0.30;0.10;;;17.70;73.50;;;;;;5012358;28;20034;-85
2021/07/11 03:03:12;;;;;;;0.10;0.10;;;17.70;73.50;;;;;;5028864;28;20582;-86
2021/07/11 03:05:38;;;;;;;0.13;0.00;;;17.60;73.50;;;;;;5027982;28;20061;-84
2021/07/11 03:08:06;;;;;;;0.63;0.10;;;17.60;73.60;;;;;;5013367;28;20042;-86
2021/07/11 03:10:32;;;;;;;0.35;0.00;;;17.60;73.60;;;;;;5028794;28;20037;-84
2021/07/11 03:12:58;;;;;;;0.75;0.40;;;17.50;73.70;;;;;;5012735;28;20021;-85
2021/07/11 03:15:24;;;;;;;0.95;0.30;;;17.50;73.70;;;;;;5027955;28;20046;-85
2021/07/11 03:17:50;;;;;;;0.55;0.10;;;17.50;73.80;;;;;;5028493;28;20018;-84
2021/07/11 03:20:16;;;;;;;0.00;0.00;;;17.50;73.80;;;;;;5012963;28;20034;-87
2021/07/11 03:22:43;;;;;;;1.08;0.40;;;17.40;73.80;;;;;;5028556;28;20022;-84
2021/07/11 03:25:10;;;;;;;0.10;0.00;;;17.40;73.90;;;;;;5029061;28;20038;-84
2021/07/11 03:27:36;;;;;;;0.45;0.10;;;17.40;73.90;;;;;;5028396;28;20053;-85
2021/07/11 03:30:07;;;;;;;0.20;0.10;;;17.40;73.90;;;;;;5027716;28;20034;-83
2021/07/11 03:32:44;;;;;;;0.75;0.20;;;17.40;73.90;;;;;;5012844;28;20025;-85
2021/07/11 03:35:11;;;;;;;1.08;0.15;;;17.40;74.00;;;;;;5011459;28;20036;-83
2021/07/11 03:37:40;;;;;;;0.25;0.10;;;17.30;73.90;;;;;;5011924;28;20038;-83
2021/07/11 03:40:07;;;;;;;0.03;0.03;;;17.30;74.00;;;;;;4996486;28;20041;-85
2021/07/11 03:42:36;;;;;;;0.45;0.20;;;17.30;74.00;;;;;;5011610;28;20022;-85
2021/07/11 03:45:03;;;;;;;0.10;0.00;;;17.30;74.00;;;;;;5027172;28;20029;-83
2021/07/11 03:47:39;;;;;;;0.32;0.20;;;17.30;74.10;;;;;;5027343;28;20507;-85
2021/07/11 03:50:05;;;;;;;0.77;0.43;;;17.30;74.20;;;;;;5012766;28;20028;-85
2021/07/11 03:52:32;;;;;;;2.55;0.10;;;17.20;74.10;;;;;;5027863;28;20034;-84
2021/07/11 03:55:00;;;;;;;0.77;0.47;;;17.20;74.10;;;;;;5012031;28;20041;-87
2021/07/11 03:57:27;;;;;;;1.15;0.10;;;17.20;74.10;;;;;;5027516;28;20046;-85
2021/07/11 03:59:53;;;;;;;1.15;0.25;;;17.20;74.10;;;;;;5012585;28;20028;-84
2021/07/11 04:02:19;;;;;;;1.50;0.15;;;17.20;74.20;;;;;;5026868;28;20034;-84
2021/07/11 04:04:45;;;;;;;0.80;0.30;;;17.20;74.20;;;;;;5027635;28;20038;-85
2021/07/11 04:07:11;;;;;;;0.43;0.00;;;17.20;74.20;;;;;;5028003;28;20038;-82
2021/07/11 04:09:37;;;;;;;0.10;0.03;;;17.20;74.30;;;;;;5011418;28;20030;-85
2021/07/11 04:12:04;;;;;;;0.00;0.00;;;17.20;74.30;;;;;;5027490;28;20022;-84
2021/07/11 04:14:30;;;;;;;6.13;0.22;;;17.10;74.20;;;;;;5012370;28;20038;-84
2021/07/11 04:17:02;;;;;;;0.00;0.00;;;17.10;74.20;;;;;;5026024;28;20029;-84
2021/07/11 04:19:31;;;;;;;0.52;0.20;;;17.10;74.30;;;;;;5011170;28;20057;-83
2021/07/11 04:21:57;;;;;;;1.08;0.38;;;17.10;74.30;;;;;;5012853;28;20038;-85
2021/07/11 04:24:23;;;;;;;0.77;0.40;;;17.20;74.30;;;;;;5007636;28;20516;-84
2021/07/11 04:26:49;;;;;;;0.00;0.00;;;17.10;74.30;;;;;;5020773;28;20405;-85
2021/07/11 04:29:16;;;;;;;0.32;0.00;;;17.10;74.20;;;;;;5026979;28;20056;-84
2021/07/11 04:31:45;;;;;;;0.10;0.00;;;17.10;74.20;;;;;;5026495;28;20030;-82
2021/07/11 04:34:33;;;;;;;0.82;0.35;;;17.20;74.40;;;;;;5012406;28;20408;-82
2021/07/11 04:37:02;;;;;;;0.32;0.17;;;17.20;74.30;;;;;;5010664;28;20041;-83
2021/07/11 04:39:28;;;;;;;0.75;0.45;;;17.20;74.30;;;;;;5026989;28;20038;-84
2021/07/11 04:41:55;;;;;;;0.47;0.20;;;17.20;74.30;;;;;;5011932;28;20373;-85
2021/07/11 04:44:22;;;;;;;0.13;0.00;;;17.20;74.30;;;;;;5026611;28;20488;-85
2021/07/11 04:46:48;;;;;;;11.50;0.45;;;17.20;74.30;;;;;;5011149;28;20057;-84
2021/07/11 04:49:14;;;;;;;0.00;0.00;;;17.20;74.40;;;;;;5012243;28;20432;-84
2021/07/11 04:51:41;;;;;;;0.20;0.10;;;17.20;74.30;;;;;;5012344;28;20045;-85
2021/07/11 04:54:07;;;;;;;0.20;0.00;;;17.20;74.30;;;;;;5027200;28;20038;-84
2021/07/11 04:56:33;;;;;;;0.30;0.20;;;17.20;74.30;;;;;;5011901;28;20038;-84
2021/07/11 04:58:59;;;;;;;0.15;0.15;;;17.20;74.30;;;;;;5027374;28;20034;-82
2021/07/11 05:01:25;;;;;;;0.10;0.00;;;17.20;74.20;;;;;;5026442;28;20413;-84
2021/07/11 05:03:52;;;;;;;0.10;0.03;;;17.30;74.30;;;;;;5009206;28;20029;-84
2021/07/11 05:06:18;;;;;;;0.17;0.10;;;17.30;74.20;;;;;;5027076;28;20034;-85
2021/07/11 05:08:44;;;;;;;1.48;0.35;;;17.30;74.20;;;;;;5011685;28;20042;-85
2021/07/11 05:11:11;;;;;;;0.38;0.08;;;17.30;74.10;;;;;;5026946;28;20034;-84
2021/07/11 05:13:37;;;;;;;0.90;0.30;;;17.40;74.20;;;;;;5011786;28;20029;-85
2021/07/11 05:16:03;;;;;;;0.32;0.30;;;17.50;74.10;;;;;;5011358;28;20503;-84
2021/07/11 05:18:29;;;;;;;0.93;0.17;;;17.70;74.00;;;;;;5011629;28;20037;-86
2021/07/11 05:20:55;;;;;;;0.70;0.05;;;17.90;73.80;;;;;;5026712;28;20469;-84
2021/07/11 05:23:21;;;;;;;0.52;0.00;;;18.10;73.50;;;;;;5011687;28;20049;-84
2021/07/11 05:25:47;;;;;;;1.67;0.30;;;18.30;73.10;;;;;;5011758;28;20476;-85
2021/07/11 05:28:13;;;;;;;0.10;0.10;;;18.60;72.80;;;;;;5012391;28;20057;-87
2021/07/11 05:30:40;;;;;;;0.10;0.08;;;18.70;72.50;;;;;;5014691;28;20519;-85
2021/07/11 05:33:06;;;;;;;0.43;0.10;;;19.00;72.30;;;;;;5030525;28;20030;-84
2021/07/11 05:35:32;;;;;;;0.00;0.00;;;19.10;72.00;;;;;;5030358;28;20405;-84
2021/07/11 05:37:58;;;;;;;0.25;0.15;;;19.20;71.80;;;;;;5030551;28;20037;-85
2021/07/11 05:40:24;;;;;;;3.70;0.60;;;19.30;71.70;;;;;;5015210;28;20030;-84
2021/07/11 05:42:50;;;;;;;1.45;0.22;;;19.40;71.50;;;;;;5014347;28;20034;-84
2021/07/11 05:45:16;;;;;;;0.10;0.00;;;19.50;71.40;;;;;;5014213;28;20038;-85
2021/07/11 05:47:42;;;;;;;0.03;0.00;;;19.60;71.30;;;;;;5014835;28;20038;-85
2021/07/11 05:50:09;;;;;;;0.55;0.20;;;19.70;71.20;;;;;;5030258;28;20026;-85
2021/07/11 05:52:35;;;;;;;0.10;0.10;;;19.80;71.10;;;;;;5030131;28;20017;-86
2021/07/11 05:55:03;;;;;;;1.02;0.38;;;19.90;70.90;;;;;;5015328;28;20033;-85
2021/07/11 05:57:31;;;;;;;0.10;0.00;;;20.10;70.70;;;;;;5014684;28;20022;-86
2021/07/11 05:59:57;;;;;;;1.00;0.45;;;20.20;70.50;;;;;;5014501;28;20037;-84
2021/07/11 06:02:23;;;;;;;0.70;0.10;;;20.30;70.30;;;;;;5013060;28;20038;-84
2021/07/11 06:04:49;;;;;;;0.10;0.00;;;20.40;70.10;;;;;;5014625;28;20032;-85
2021/07/11 06:07:15;;;;;;;0.20;0.15;;;20.50;70.00;;;;;;5014890;28;20022;-84
2021/07/11 06:09:41;;;;;;;0.10;0.00;;;20.60;69.90;;;;;;5014898;28;20041;-84
2021/07/11 06:12:08;;;;;;;0.52;0.20;;;20.70;69.60;;;;;;5014258;28;20520;-84
2021/07/11 06:14:34;;;;;;;0.52;0.20;;;20.80;69.50;;;;;;5029802;28;20034;-84
2021/07/11 06:17:00;;;;;;;0.20;0.10;;;20.90;69.40;;;;;;5014121;28;20052;-84
2021/07/11 06:19:26;;;;;;;0.20;0.20;;;21.00;69.20;;;;;;5029667;28;20046;-85
2021/07/11 06:21:52;;;;;;;1.10;0.20;;;21.10;69.00;;;;;;5014949;28;20052;-85
2021/07/11 06:24:18;;;;;;;0.20;0.00;;;21.20;68.80;;;;;;5029613;28;20029;-85
2021/07/11 06:26:44;;;;;;;0.08;0.00;;;21.30;68.60;;;;;;5013762;28;20392;-85
2021/07/11 06:29:10;;;;;;;0.00;0.00;;;21.40;68.40;;;;;;5029125;28;20038;-83
2021/07/11 06:31:36;;;;;;;0.00;0.00;;;21.50;68.20;;;;;;5013719;28;20060;-85
2021/07/11 06:34:03;;;;;;;0.10;0.00;;;21.70;68.10;;;;;;5014618;28;20052;-85
2021/07/11 06:36:31;;;;;;;0.52;0.20;;;21.80;67.80;;;;;;5013969;28;20404;-85
2021/07/11 06:39:04;;;;;;;0.00;0.00;;;21.90;67.50;;;;;;5014033;28;20110;-85
2021/07/11 06:41:30;;;;;;;0.32;0.10;;;22.10;67.30;;;;;;5027362;28;20033;-85
2021/07/11 06:43:56;;;;;;;0.55;0.20;;;22.20;67.10;;;;;;5029211;28;20041;-85
2021/07/11 06:46:22;;;;;;;0.85;0.30;;;22.40;67.10;;;;;;5013679;28;20526;-86
2021/07/11 06:48:49;;;;;;;0.25;0.10;;;22.40;66.60;;;;;;5014194;28;20045;-85
2021/07/11 06:51:15;;;;;;;0.52;0.08;;;22.50;66.50;;;;;;5028998;28;20476;-85
2021/07/11 06:53:41;;;;;;;0.00;0.00;;;22.70;66.30;;;;;;5013899;28;20034;-85
2021/07/11 06:56:07;;;;;;;0.10;0.00;;;22.80;66.10;;;;;;5013359;28;20041;-85
2021/07/11 06:58:33;;;;;;;0.10;0.08;;;22.80;65.80;;;;;;5029058;28;20034;-85
2021/07/11 07:00:59;;;;;;;0.20;0.00;;;22.90;65.80;;;;;;5012631;28;20033;-85
2021/07/11 07:03:26;;;;;;;0.13;0.00;;;23.00;65.70;;;;;;5013611;28;20030;-87
2021/07/11 07:05:52;;;;;;;0.30;0.13;;;23.00;65.50;;;;;;5028853;28;20045;-84
2021/07/11 07:08:18;;;;;;;0.50;0.10;;;23.20;65.30;;;;;;5013475;28;20049;-85
2021/07/11 07:10:44;;;;;;;0.00;0.00;;;23.30;65.10;;;;;;5028259;28;20045;-85
2021/07/11 07:13:11;;;;;;;0.03;0.00;;;23.40;64.80;;;;;;5029292;28;20045;-85
2021/07/11 07:15:37;;;;;;;0.00;0.00;;;23.60;64.50;;;;;;5028413;28;20022;-85
2021/07/11 07:18:03;;;;;;;0.22;0.10;;;23.70;64.20;;;;;;5013462;28;20037;-85
2021/07/11 07:20:29;;;;;;;0.25;0.10;;;23.90;63.90;;;;;;5011903;28;20042;-85
2021/07/11 07:22:55;;;;;;;0.00;0.00;;;24.00;63.60;;;;;;5013338;28;20037;-85
2021/07/11 07:25:21;;;;;;;0.17;0.00;;;24.20;63.50;;;;;;5012967;28;20480;-86
2021/07/11 07:27:47;;;;;;;0.00;0.00;;;24.30;63.10;;;;;;4992936;28;20046;-86
2021/07/11 07:30:20;;;;;;;0.10;0.00;;;24.40;62.90;;;;;;5009425;28;20054;-86
2021/07/11 07:32:50;;;;;;;0.00;0.00;;;24.50;62.70;;;;;;5012999;28;20022;-86
2021/07/11 07:35:20;;;;;;;0.05;0.00;;;24.60;62.50;;;;;;5027510;28;20046;-86
2021/07/11 07:37:46;;;;;;;0.00;0.00;;;24.70;62.20;;;;;;5013263;28;20032;-87
2021/07/11 07:40:17;;;;;;;0.40;0.10;;;24.80;62.10;;;;;;5028092;28;20030;-87
2021/07/11 07:42:47;;;;;;;0.00;0.00;;;24.70;61.90;;;;;;5011177;28;20026;-87
2021/07/11 07:45:13;;;;;;;0.38;0.00;;;24.80;62.00;;;;;;5027427;28;20054;-86
2021/07/11 07:47:39;;;;;;;0.20;0.13;;;24.90;61.90;;;;;;5012935;28;20515;-86
2021/07/11 07:50:07;;;;;;;0.05;0.00;;;24.90;61.50;;;;;;5012751;28;20030;-86
2021/07/11 07:52:33;;;;;;;0.22;0.00;;;25.00;61.40;;;;;;5011797;28;20022;-85
2021/07/11 07:54:59;;;;;;;0.28;0.20;;;25.00;61.20;;;;;;5011745;28;20025;-86
2021/07/11 07:57:25;;;;;;;0.00;0.00;;;25.10;61.20;;;;;;5027799;28;20033;-87
2021/07/11 07:59:51;;;;;;;6.35;0.20;;;25.10;61.00;;;;;;5012628;28;20030;-87
2021/07/11 08:02:18;;;;;;;0.00;0.00;;;25.10;60.90;;;;;;5012137;28;20052;-87
2021/07/11 08:04:44;;;;;;;0.13;0.00;;;25.00;60.90;;;;;;5010609;28;20035;-86
2021/07/11 08:07:10;;;;;;;0.10;0.00;;;24.80;60.90;;;;;;5028417;28;20361;-90
2021/07/11 08:09:36;;;;;;;0.00;0.00;;;24.70;61.20;;;;;;5012171;28;20065;-85
2021/07/11 08:12:02;;;;;;;0.00;0.00;;;24.80;61.30;;;;;;5027538;28;20499;-86
2021/07/11 08:14:28;;;;;;;1.30;0.15;;;24.90;60.80;;;;;;5012594;28;20041;-86
2021/07/11 08:16:56;;;;;;;0.35;0.10;;;25.10;60.50;;;;;;5011879;28;20499;-87
2021/07/11 08:19:22;;;;;;;0.00;0.00;;;25.10;60.10;;;;;;5027500;28;20042;-87
2021/07/11 08:21:53;;;;;;;0.70;0.00;;;25.10;60.10;;;;;;5011742;28;20018;-86
2021/07/11 08:24:21;;;;;;;4.55;0.20;;;25.10;60.10;;;;;;5007620;28;20053;-87
2021/07/11 08:26:47;;;;;;;0.20;0.00;;;25.20;59.90;;;;;;5004556;28;20034;-86
2021/07/11 08:29:14;;;;;;;0.40;0.00;;;25.30;59.70;;;;;;5012063;28;20046;-86
2021/07/11 08:31:40;;;;;;;0.35;0.00;;;25.50;59.40;;;;;;4996103;28;20670;-86
2021/07/11 08:34:06;;;;;;;0.05;0.00;;;25.70;58.90;;;;;;5012661;28;20396;-86
2021/07/11 08:36:32;;;;;;;0.00;0.00;;;25.80;58.60;;;;;;5007525;28;20039;-86
2021/07/11 08:38:59;;;;;;;0.70;0.00;;;26.10;58.60;;;;;;5006831;28;20030;-86
2021/07/11 08:41:25;;;;;;;0.10;0.00;;;26.10;58.30;;;;;;5027290;28;20392;-86
2021/07/11 08:43:52;;;;;;;0.00;0.00;;;26.20;58.10;;;;;;5012122;28;20026;-86
2021/07/11 08:46:19;;;;;;;0.08;0.00;;;26.30;58.00;;;;;;5010502;28;20465;-86
2021/07/11 08:48:48;;;;;;;1.02;0.03;;;26.30;57.90;;;;;;5012251;28;20469;-86
2021/07/11 08:51:15;;;;;;;0.00;0.00;;;26.10;58.00;;;;;;5026874;28;20408;-86
2021/07/11 08:53:41;;;;;;;0.00;0.00;;;25.90;58.20;;;;;;5027024;28;20029;-88
2021/07/11 08:56:28;;;;;;;11.30;0.13;;;26.00;58.20;;;;;;5011949;28;20026;-87
2021/07/11 08:58:56;;;;;;;0.08;0.00;;;26.00;57.90;;;;;;4998386;28;20045;-86
2021/07/11 09:01:24;;;;;;;0.00;0.00;;;26.00;57.90;;;;;;5011957;28;20382;-86
2021/07/11 09:04:03;;;;;;;0.00;0.00;;;26.00;57.80;;;;;;5013054;28;20489;-88
2021/07/11 09:06:42;;;;;;;0.00;0.00;;;26.10;57.50;;;;;;5015427;28;20041;-86
2021/07/11 09:09:08;;;;;;;0.10;0.00;;;26.10;57.40;;;;;;5031034;28;20042;-86
2021/07/11 09:12:08;;;;;;;0.00;0.00;;;26.00;57.40;;;;;;5015874;28;20030;-87
2021/07/11 09:14:39;;;;;;;0.00;0.00;;;25.80;57.60;;;;;;5033520;28;20042;-87
2021/07/11 09:17:06;;;;;;;0.00;0.00;;;25.60;57.90;;;;;;5032805;28;20034;-86
2021/07/11 09:19:41;;;;;;;0.00;0.00;;;25.40;58.10;;;;;;5033250;28;20044;-87
2021/07/11 09:22:17;;;;;;;0.20;0.10;;;25.20;58.20;;;;;;5032758;28;20392;-87
2021/07/11 09:24:56;;;;;;;0.00;0.00;;;25.00;58.30;;;;;;5016870;28;20041;-86
2021/07/11 09:27:27;;;;;;;0.20;0.00;;;24.90;58.40;;;;;;5032790;28;20041;-85
2021/07/11 09:29:58;;;;;;;;;;;24.80;58.50;;;;;;5017118;28;20041;-86
2021/07/11 09:32:26;;;;;;;0.35;0.10;;;24.70;58.50;;;;;;5032500;28;19951;-85
2021/07/11 09:34:52;;;;;;;0.10;0.00;;;24.70;58.50;;;;;;5016238;28;20029;-86
2021/07/11 09:37:19;;;;;;;0.00;0.00;;;24.70;58.40;;;;;;5015738;28;20034;-87
2021/07/11 09:39:49;;;;;;;0.00;0.00;;;24.70;58.30;;;;;;5016773;28;20036;-86
2021/07/11 09:42:35;;;;;;;0.10;0.00;;;24.80;58.10;;;;;;5032807;28;20030;-86
2021/07/11 09:45:03;;;;;;;0.00;0.00;;;24.90;57.90;;;;;;5032698;28;20037;-87
2021/07/11 09:47:30;;;;;;;0.00;0.00;;;25.00;57.70;;;;;;5031730;28;20033;-86
2021/07/11 09:50:00;;;;;;;0.08;0.00;;;25.20;57.30;;;;;;5025098;28;20423;-87
2021/07/11 09:52:27;;;;;;;0.10;0.00;;;25.30;57.00;;;;;;5015010;28;20401;-88
2021/07/11 09:55:01;;;;;;;0.00;0.00;;;25.30;56.80;;;;;;5015439;28;20038;-87
2021/07/11 09:57:53;;;;;;;0.00;0.00;;;25.30;56.70;;;;;;5014797;28;20496;-85
2021/07/11 10:00:35;;;;;;;0.00;0.00;;;25.40;56.70;;;;;;5027043;28;20401;-88
2021/07/11 10:03:11;;;;;;;0.10;0.00;;;25.40;56.50;;;;;;5010140;28;20038;-86
2021/07/11 10:05:37;;;;;;;0.05;0.00;;;25.50;56.50;;;;;;5021519;28;20026;-85
2021/07/11 10:08:04;;;;;;;0.00;0.00;;;25.50;56.40;;;;;;5029998;28;20484;-86
2021/07/11 10:10:31;;;;;;;0.00;0.00;;;25.50;56.30;;;;;;5015096;28;20492;-86
2021/07/11 10:12:58;;;;;;;0.00;0.00;;;25.40;56.10;;;;;;5015341;28;20033;-86
2021/07/11 10:15:26;;;;;;;0.00;0.00;;;25.20;56.10;;;;;;5012833;28;20033;-88
2021/07/11 10:17:54;;;;;;;0.00;0.00;;;25.10;56.30;;;;;;5014455;28;20026;-86
2021/07/11 10:20:21;;;;;;;0.10;0.00;;;25.10;56.40;;;;;;5029197;28;20045;-87
2021/07/11 10:22:52;;;;;;;0.00;0.00;;;25.20;56.10;;;;;;5029865;28;20042;-86
2021/07/11 10:25:20;;;;;;;0.22;0.00;;;25.40;55.90;;;;;;5013614;28;20041;-87
2021/07/11 10:27:47;;;;;;;0.00;0.00;;;25.40;55.50;;;;;;4997058;28;20061;-86
2021/07/11 10:30:14;;;;;;;0.00;0.00;;;25.50;55.40;;;;;;5028379;28;20045;-86
2021/07/11 10:32:40;;;;;;;0.00;0.00;;;25.50;55.40;;;;;;5014333;28;20029;-86
2021/07/11 10:35:17;;;;;;;0.05;0.00;;;25.50;55.30;;;;;;5014372;28;20096;-87
2021/07/11 10:37:53;;;;;;;0.30;0.00;;;25.40;55.10;;;;;;4997801;28;20022;-88
2021/07/11 10:40:22;;;;;;;0.00;0.00;;;25.30;55.10;;;;;;5029279;28;20030;-87
2021/07/11 10:42:49;;;;;;;0.00;0.00;;;25.30;55.30;;;;;;5014511;28;20030;-86
2021/07/11 10:45:16;;;;;;;0.00;0.00;;;25.30;55.30;;;;;;5028632;28;20033;-86
2021/07/11 10:47:43;;;;;;;0.00;0.00;;;25.30;55.00;;;;;;5009123;28;20038;-87
2021/07/11 10:50:29;;;;;;;0.00;0.00;;;25.20;55.00;;;;;;5017242;28;20038;-87
2021/07/11 10:52:56;;;;;;;0.10;0.00;;;25.20;55.10;;;;;;4999375;28;20045;-87
2021/07/11 10:55:22;;;;;;;0.00;0.00;;;25.10;55.20;;;;;;5014163;28;20053;-87
2021/07/11 10:57:48;;;;;;;0.00;0.00;;;25.20;55.00;;;;;;5012917;28;20030;-88
2021/07/11 11:00:17;;;;;;;0.00;0.00;;;25.30;54.90;;;;;;5013372;28;20037;-87
2021/07/11 11:02:45;;;;;;;0.00;0.00;;;25.50;54.70;;;;;;5013343;28;20025;-87
2021/07/11 11:05:16;;;;;;;0.00;0.00;;;25.70;54.30;;;;;;5029079;28;20105;-85
2021/07/11 11:07:43;;;;;;;0.05;0.00;;;25.60;54.00;;;;;;5012826;28;20026;-87
2021/07/11 11:10:29;;;;;;;0.00;0.00;;;25.60;54.00;;;;;;5009888;28;20041;-86
2021/07/11 11:13:19;;;;;;;0.00;0.00;;;25.60;54.00;;;;;;5016781;28;20049;-87
2021/07/11 11:15:52;;;;;;;0.00;0.00;;;25.50;53.80;;;;;;5014473;28;20026;-86
2021/07/11 11:18:30;;;;;;;0.00;0.00;;;25.30;54.20;;;;;;5008797;28;20045;-87
2021/07/11 11:21:09;;;;;;;0.00;0.00;;;25.20;54.00;;;;;;5007936;28;20034;-91
2021/07/11 11:23:40;;;;;;;0.10;0.00;;;25.10;54.10;;;;;;5028641;28;20428;-87
2021/07/11 11:26:07;;;;;;;0.00;0.00;;;25.10;54.20;;;;;;5013285;28;20481;-85
2021/07/11 11:28:38;;;;;;;0.15;0.00;;;25.20;54.20;;;;;;5028214;28;20029;-88
2021/07/11 11:31:14;;;;;;;0.00;0.00;;;25.30;53.90;;;;;;5011945;28;20048;-87
2021/07/11 11:33:53;;;;;;;0.10;0.00;;;25.40;53.70;;;;;;5008989;28;20042;-87
2021/07/11 11:36:28;;;;;;;3.20;0.10;;;25.40;53.60;;;;;;5010647;28;20045;-86
2021/07/11 11:38:57;;;;;;;0.00;0.00;;;25.40;53.60;;;;;;5028022;28;20472;-87
2021/07/11 11:41:23;;;;;;;0.00;0.00;;;25.40;53.60;;;;;;5028147;28;20480;-86
2021/07/11 11:43:49;;;;;;;0.05;0.00;;;25.60;53.50;;;;;;5028025;28;20485;-86
2021/07/11 11:46:26;;;;;;;0.00;0.00;;;25.70;53.40;;;;;;5012572;28;20034;-87
2021/07/11 11:48:54;;;;;;;0.00;0.00;;;25.70;53.20;;;;;;5006083;28;20042;-87
2021/07/11 11:51:20;;;;;;;0.00;0.00;;;25.60;53.00;;;;;;5012907;28;20033;-86
2021/07/11 11:53:46;;;;;;;0.00;0.00;;;25.50;53.10;;;;;;5013068;28;20042;-86
2021/07/11 11:56:13;;;;;;;0.17;0.10;;;25.30;53.20;;;;;;5027888;28;20464;-87
2021/07/11 11:58:40;;;;;;;0.00;0.00;;;25.20;53.30;;;;;;5027973;28;20022;-87
2021/07/11 12:01:08;;;;;;;0.00;0.00;;;25.10;53.30;;;;;;5012717;28;20037;-86
2021/07/11 12:03:37;;;;;;;0.00;0.00;;;25.00;53.40;;;;;;5027630;28;20033;-87
2021/07/11 12:06:04;;;;;;;0.10;0.00;;;24.90;53.40;;;;;;5027523;28;20033;-86
2021/07/11 12:08:35;;;;;;;0.75;0.20;;;24.90;53.40;;;;;;5027582;28;20029;-86
2021/07/11 12:11:01;;;;;;;0.00;0.00;;;24.90;53.30;;;;;;5012516;28;20022;-88
2021/07/11 12:13:29;;;;;;;0.00;0.00;;;24.90;53.40;;;;;;5027795;28;20029;-87
2021/07/11 12:16:07;;;;;;;0.20;0.00;;;24.80;53.20;;;;;;5010989;28;20049;-87
2021/07/11 12:18:52;;;;;;;0.00;0.00;;;24.70;53.20;;;;;;5012306;28;20026;-88
2021/07/11 12:21:22;;;;;;;0.00;0.00;;;24.70;53.30;;;;;;5011171;28;20508;-86
2021/07/11 12:24:06;;;;;;;0.00;0.00;;;24.70;53.30;;;;;;5012738;28;20021;-86
2021/07/11 12:26:35;;;;;;;0.00;0.00;;;24.60;53.30;;;;;;5027508;28;20034;-86
2021/07/11 12:29:01;;;;;;;0.20;0.00;;;24.60;53.20;;;;;;5012246;28;20030;-86
2021/07/11 12:31:29;;;;;;;0.32;0.10;;;24.60;53.20;;;;;;5026665;28;20415;-87
2021/07/11 12:33:56;;;;;;;0.00;0.00;;;24.60;53.20;;;;;;5011615;28;20029;-86
2021/07/11 12:36:22;;;;;;;0.47;0.00;;;24.50;53.40;;;;;;5027316;28;20033;-86
2021/07/11 12:38:48;;;;;;;0.00;0.00;;;24.40;53.50;;;;;;5011624;28;20026;-86
2021/07/11 12:41:14;;;;;;;0.05;0.00;;;24.40;53.50;;;;;;5012027;28;20030;-85
2021/07/11 12:43:48;;;;;;;0.40;0.20;;;24.50;53.60;;;;;;5012148;28;20033;-87
2021/07/11 12:46:16;;;;;;;0.68;0.08;;;24.50;53.50;;;;;;5008583;28;20408;-87
2021/07/11 12:49:06;;;;;;;0.00;0.00;;;24.60;53.50;;;;;;5011133;28;20037;-87
2021/07/11 12:51:38;;;;;;;0.03;0.00;;;24.60;53.40;;;;;;5024702;28;20034;-86
2021/07/11 12:54:18;;;;;;;0.30;0.00;;;24.70;53.30;;;;;;5011969;28;20026;-86